x

Central Caribbean - 210 Nm Sse Of Kingston, Jamaica (42058) Weather Station

2:20 - Thu 25th May 2017 All times are EST. -5 hours from GMT.

  • Wind
    27mph, 34mph gusts
  • Sea Temp 82°f
  • Sea Pressure 1011.1mb
  • Central Caribbean - 210 Nm Sse Of Kingston, Jamaica
  • Central Caribbean - 210 Nm Sse Of Kingston, Jamaica

More Historic Weather Station data

Upgrade to MSW Pro to gain access to the past 30 days of data for over 8000 Wavebouys and Weather Stations around the globe.

Join Pro

Comparision Forecast

View Surf forecast
   
jeu. 05/25 2:20  -   -   -  27 34 mph 1011.1mb 82f
2:10  -   -   -  27 34 mph 1011mb 82f
2:00  -   -   -  25 31 mph 1011mb 82f
1:50 10ft 8s 6s 27 34 mph 1011mb 83f
1:40 10ft  -  6s 25 31 mph 1011.1mb 83f
1:30  -   -   -  25 29 mph 1011.1mb 83f
1:20  -   -   -  25 34 mph 1011.1mb 83f
1:10  -   -   -  25 31 mph 1011.1mb 82f
1:00  -   -   -  27 36 mph 1011mb 83f
12:50 10.5ft 8s 6s 29 36 mph 1011mb 82f
12:40 10.5ft  -  6s 29 36 mph 1011mb 83f
12:30  -   -   -  27 34 mph 1011mb 83f
12:20  -   -   -  27 38 mph 1011.3mb 83f
12:10  -   -   -  27 31 mph 1011.4mb 83f
12:00  -   -   -  25 31 mph 1011.6mb 83f
mer. 05/24 11:50 10.5ft 9s 6s 27 36 mph 1011.8mb 83f
11:40  -   -   -  27 36 mph 1011.9mb 83f
11:30  -   -   -  27 34 mph 1012mb 83f
11:20  -   -   -  25 34 mph 1012mb 83f
11:10  -   -   -  27 36 mph 1012mb 83f
11:00  -   -   -  27 34 mph 1011.9mb 83f
10:50 10ft 8s 6s 27 36 mph 1011.8mb 83f
10:40  -   -   -  27 34 mph 1011.8mb 83f
10:30  -   -   -  27 34 mph 1011.8mb 83f
10:20  -   -   -  27 34 mph 1011.6mb 83f
10:10  -   -   -  29 36 mph 1011.5mb 83f
10:00  -   -   -  27 34 mph 1011.8mb 83f
9:50 9ft 9s 6s 27 34 mph 1011.8mb 83f
9:40 9ft  -  6s 27 34 mph 1011.8mb 83f
9:30  -   -   -  29 38 mph 1011.6mb 83f
9:20  -   -   -  27 34 mph 1011.6mb 83f
9:10  -   -   -  27 34 mph 1011.5mb 83f
9:00  -   -   -  27 34 mph 1011.5mb 83f
8:50 10ft 8s 6s 27 34 mph 1011.5mb 83f
8:40  -   -   -  29 34 mph 1011.5mb 83f
8:30  -   -   -  25 34 mph 1011.5mb 83f
8:20  -   -   -  25 29 mph 1011.5mb 83f
8:10  -   -   -  25 34 mph 1011.5mb 83f
8:00  -   -   -  25 29 mph 1011.4mb 83f
7:50 9ft 8s 6s 27 34 mph 1011.3mb 83f
7:40  -   -   -  25 29 mph 1011mb 83f
7:30  -   -   -  25 31 mph 1010.9mb 83f
7:20  -   -   -  25 31 mph 1010.9mb 83f
7:10  -   -   -  22 29 mph 1010.6mb 83f
7:00  -   -   -  25 31 mph 1010.6mb 83f
6:50 9ft 9s 6s 25 29 mph 1010.4mb 83f
6:40 9ft  -  6s 25 29 mph 1010.3mb 83f
6:30  -   -   -  22 29 mph 1010.3mb 83f
6:20  -   -   -  22 29 mph 1010mb 83f
6:10  -   -   -  22 29 mph 1010mb 83f
6:00  -   -   -  22 27 mph 1009.8mb 83f
5:50 9ft 8s 6s 25 29 mph 1009.6mb 83f
5:40  -   -   -  27 34 mph 1009.5mb 83f
5:30  -   -   -  27 34 mph 1009.5mb 83f
5:20  -   -   -  25 31 mph 1009.5mb 83f
5:10  -   -   -  25 31 mph 1009.4mb 83f
5:00  -   -   -  25 31 mph 1009.5mb 83f
4:50 10ft 8s 6s 22 29 mph 1009.5mb 83f
4:40 10ft  -  6s 25 31 mph 1009.4mb 83f
4:30  -   -   -  25 27 mph 1009.4mb 83f
4:20  -   -   -  25 29 mph 1009.4mb 83f
4:10  -   -   -  22 29 mph 1009.4mb 83f
4:00  -   -   -  25 34 mph 1009.3mb 83f
3:50 9.5ft 8s 6s 25 34 mph 1009.1mb 83f
3:40  -   -   -  27 36 mph 1009.1mb 83f
3:30  -   -   -  27 36 mph 1009.3mb 83f
3:20  -   -   -  27 34 mph 1009.4mb 83f
3:10  -   -   -  27 34 mph 1009.5mb 83f
3:00  -   -   -  27 34 mph 1009.6mb 83f
2:50 9ft 8s 6s 25 31 mph 1009.8mb 83f
2:40  -   -   -  25 36 mph 1009.8mb 83f
2:30  -   -   -  25 31 mph 1009.8mb 83f
2:20  -   -   -  25 29 mph 1009.9mb 83f
2:10  -   -   -  27 36 mph 1010mb 83f
2:00  -   -   -  27 34 mph 1010mb 83f
1:50 9ft 8s 6s 27 36 mph 1010.1mb 83f
1:40 9ft  -  6s 27 34 mph 1010.1mb 83f
1:30  -   -   -  27 34 mph 1010.4mb 83f
1:20  -   -   -  27 34 mph 1010.5mb 83f
1:10  -   -   -  25 36 mph 1010.5mb 83f
1:00  -   -   -  25 29 mph 1010.9mb 83f
12:50 8.5ft 8s 6s 22 29 mph 1011.1mb 83f
12:40  -   -   -  25 31 mph 1011.1mb 83f
12:30  -   -   -  25 31 mph 1011.3mb 83f
12:20  -   -   -  25 31 mph 1011.5mb 83f
12:10  -   -   -  25 31 mph 1011.6mb 83f
12:00  -   -   -  22 29 mph 1012mb 83f
11:50 9ft 8s 6s 25 31 mph 1012mb 83f
11:40  -   -   -  25 31 mph 1012mb 83f
11:30  -   -   -  25 34 mph 1012.1mb 83f
11:20  -   -   -  22 29 mph 1012.5mb 83f
11:10  -   -   -  25 31 mph 1012.5mb 83f
11:00  -   -   -  25 31 mph 1012.5mb 83f
10:50 8ft 8s 6s 27 34 mph 1012.6mb 83f
10:40 8ft  -  6s 25 29 mph 1012.5mb 83f
10:30  -   -   -  22 29 mph 1012.8mb 83f
10:20  -   -   -  22 29 mph 1012.8mb 82f
10:10  -   -   -  25 31 mph 1012.8mb 83f
10:00  -   -   -  22 29 mph 1012.9mb 82f
9:50 8ft 8s 6s 22 29 mph 1012.9mb 82f
9:40 8ft  -  6s 22 29 mph 1013mb 82f
9:30  -   -   -  22 29 mph 1013mb 82f
9:20  -   -   -  22 29 mph 1012.9mb 82f
9:10  -   -   -  22 29 mph 1012.9mb 82f
9:00  -   -   -  22 27 mph 1012.8mb 82f
8:50 7.5ft 8s 6s 22 29 mph 1012.6mb 82f
8:40 7.5ft  -  6s 22 29 mph 1012.6mb 82f
8:30  -   -   -  22 29 mph 1012.6mb 82f
8:20  -   -   -  25 31 mph 1012.5mb 82f
8:10  -   -   -  25 31 mph 1012.5mb 82f
8:00  -   -   -  22 27 mph 1012.5mb 82f
7:50 7.5ft 8s 6s 22 31 mph 1012.5mb 82f
7:40  -   -   -  22 27 mph 1012.5mb 82f
7:30  -   -   -  22 29 mph 1012.3mb 82f
7:20  -   -   -  22 27 mph 1012.3mb 82f
7:10  -   -   -  22 29 mph 1012.1mb 82f
7:00  -   -   -  22 29 mph 1012mb 82f
6:50 8ft 7s 6s 22 29 mph 1011.8mb 82f
6:40  -   -   -  22 27 mph 1011.6mb 82f
6:30  -   -   -  22 27 mph 1011.5mb 82f
6:20  -   -   -  22 27 mph 1011.5mb 82f
6:10  -   -   -  20 27 mph 1011.3mb 82f
6:00  -   -   -  22 29 mph 1011.1mb 82f
5:50 7.5ft 7s 6s 20 27 mph 1011.1mb 82f
5:40  -   -   -  22 29 mph 1011mb 82f
5:30  -   -   -  20 27 mph 1010.9mb 82f
5:20  -   -   -  22 27 mph 1010.8mb 82f
5:10  -   -   -  22 27 mph 1010.9mb 82f
5:00  -   -   -  22 27 mph 1010.8mb -
4:50 7ft 8s 6s 20 27 mph 1010.8mb 82f
4:40  -   -   -  22 29 mph 1010.6mb 82f
4:30  -   -   -  20 27 mph 1010.5mb 82f
4:20  -   -   -  22 31 mph 1010.5mb 82f
4:10  -   -   -  22 29 mph 1010.5mb 82f
4:00  -   -   -  22 27 mph 1010.8mb 82f
3:50 7.5ft 8s 6s 22 29 mph 1010.9mb 82f
3:40 7.5ft  -  6s 22 29 mph 1010.6mb 82f
3:30  -   -   -  22 27 mph 1010.5mb 82f
3:20  -   -   -  22 29 mph 1010.5mb 82f
3:10  -   -   -  22 31 mph 1010.5mb 82f
3:00  -   -   -  22 29 mph 1010.6mb 82f
2:50 7ft 8s 6s 22 31 mph 1010.6mb 82f
2:40 7ft  -  6s 25 31 mph 1010.8mb 82f
2:30  -   -   -  25 31 mph 1011mb 82f
2:20  -   -   -  25 29 mph 1011mb 82f
2:10  -   -   -  25 29 mph 1011mb 82f
2:00  -   -   -  25 29 mph 1011mb 82f
1:50 7ft 8s 5s 25 29 mph 1011.1mb 82f
1:40  -   -   -  22 29 mph 1011.3mb 82f
1:30  -   -   -  22 29 mph 1011.4mb 82f
1:20  -   -   -  25 29 mph 1011.4mb 82f
1:10  -   -   -  22 27 mph 1011.5mb 82f
1:00  -   -   -  22 29 mph 1011.5mb 82f
12:50 7.5ft 7s 6s 22 29 mph 1011.5mb 82f
12:40 7.5ft  -  6s 25 29 mph 1011.6mb 82f
12:30  -   -   -  22 29 mph 1011.8mb 82f
12:20  -   -   -  25 29 mph 1011.8mb 82f
12:10  -   -   -  22 29 mph 1011.9mb 82f
12:00  -   -   -  25 29 mph 1011.9mb 82f
mar. 05/23 11:50 7ft 7s 5s 22 29 mph 1012mb 83f
11:40  -   -   -  25 31 mph 1011.9mb 82f
11:30  -   -   -  25 29 mph 1012mb 82f
11:20  -   -   -  25 29 mph 1012mb 82f
11:10  -   -   -  25 29 mph 1012mb 83f
11:00  -   -   -  25 29 mph 1012.3mb 83f
10:50 7ft 8s 5s 25 31 mph 1012mb 83f
10:40 7ft  -  5s 22 27 mph 1012.3mb 83f
10:30  -   -   -  25 31 mph 1012.3mb 83f
10:20  -   -   -  25 29 mph 1012mb 83f
10:10  -   -   -  25 31 mph 1012.1mb 83f
10:00  -   -   -  25 29 mph 1012mb -
9:50 7ft 8s 5s 22 29 mph 1012.1mb 83f
9:40 7ft  -  5s 25 29 mph 1012mb 83f
9:30  -   -   -  22 27 mph 1012.1mb 83f
9:20  -   -   -  25 31 mph 1012.1mb 83f
9:10  -   -   -  25 31 mph 1012mb 83f
9:00  -   -   -  22 31 mph 1011.9mb 83f
8:50 6ft 7s 5s 25 29 mph 1011.9mb 83f
8:40 6ft  -  5s 22 29 mph 1011.8mb 83f
8:30  -   -   -  22 27 mph 1011.6mb 83f
8:20  -   -   -  22 29 mph 1011.5mb 83f
8:10  -   -   -  22 27 mph 1011.5mb 83f
8:00  -   -   -  22 29 mph 1011.5mb 83f
7:50 6.5ft 7s 5s 20 27 mph 1011.4mb -
7:40  -   -   -  22 27 mph 1011.4mb 83f
7:30  -   -   -  22 27 mph 1011.3mb 83f
7:20  -   -   -  22 27 mph 1011mb 83f
7:10  -   -   -  22 27 mph 1011mb 83f
7:00  -   -   -  22 27 mph 1010.9mb -
6:50 6ft 7s 5s 20 27 mph 1011mb 83f
6:40 6ft  -  5s 20 27 mph 1010.8mb 83f
6:30  -   -   -  22 27 mph 1010.6mb 83f
6:20  -   -   -  22 27 mph 1010.9mb 83f
6:10  -   -   -  22 27 mph 1010.6mb 83f
6:00  -   -   -  22 27 mph 1010.5mb 83f
5:50 7ft 7s 5s 22 27 mph 1010.5mb 83f
5:40 7ft  -  5s 22 27 mph 1010.5mb 83f
5:30  -   -   -  22 29 mph 1010.5mb 83f
5:20  -   -   -  22 27 mph 1010.5mb 83f
5:10  -   -   -  22 27 mph 1010.6mb 83f
5:00  -   -   -  22 27 mph 1010.6mb 83f
4:50 6ft 7s 5s 22 27 mph 1010.6mb 83f
4:40  -   -   -  22 27 mph 1010.5mb 83f
4:30  -   -   -  22 29 mph 1010.5mb 83f
4:20  -   -   -  25 31 mph 1010.3mb 83f
4:10  -   -   -  25 29 mph 1010.4mb 83f
4:00  -   -   -  25 29 mph 1010.4mb -
3:50 6ft 7s 5s 22 29 mph 1010.5mb 83f
3:40  -   -   -  25 29 mph 1010.6mb 83f
3:30  -   -   -  22 27 mph 1010.8mb 83f
3:20  -   -   -  22 29 mph 1011mb 83f
3:10  -   -   -  22 27 mph 1011mb 83f
3:00  -   -   -  22 27 mph 1011.3mb 83f
2:50 6ft 7s 5s 22 27 mph 1011.5mb 83f
2:40 6ft  -  5s 20 25 mph 1011.5mb 83f
2:30  -   -   -  22 27 mph 1011.6mb 83f
2:20  -   -   -  20 27 mph 1011.8mb 83f
2:10  -   -   -  20 25 mph 1012mb 83f
2:00  -   -   -  22 27 mph 1011.9mb 83f
1:50 6ft 7s 5s 22 27 mph 1012mb 83f
1:40 6ft  -  5s 20 27 mph 1012.3mb 83f
1:30  -   -   -  22 25 mph 1012.3mb 83f
1:20  -   -   -  22 25 mph 1012.5mb 83f
1:10  -   -   -  22 27 mph 1012.5mb 83f
1:00  -   -   -  22 27 mph 1012.6mb -
12:50 6ft 7s 5s 22 27 mph 1012.9mb 83f
12:40  -   -   -  20 25 mph 1013mb 83f
12:30  -   -   -  22 27 mph 1013mb 83f
12:20  -   -   -  22 27 mph 1013.1mb 83f
12:10  -   -   -  22 25 mph 1013.3mb 83f
12:00  -   -   -  20 25 mph 1013.4mb 83f
11:50 6ft 7s 5s 20 25 mph 1013.5mb 83f
11:40  -   -   -  20 25 mph 1013.6mb 83f
11:30  -   -   -  20 25 mph 1013.8mb 83f
11:20  -   -   -  20 25 mph 1013.8mb 83f
11:10  -   -   -  20 27 mph 1013.9mb 83f
11:00  -   -   -  20 25 mph 1014mb 83f
10:50 6ft 7s 5s 20 29 mph 1014mb 83f
10:40 6ft  -  5s 20 25 mph 1014.1mb 83f
10:30  -   -   -  22 27 mph 1014.1mb 83f
10:20  -   -   -  22 27 mph 1014.1mb 83f
10:10  -   -   -  22 27 mph 1014.4mb 83f
10:00  -   -   -  20 25 mph 1014.5mb 83f
9:50 7ft 7s 6s 22 29 mph 1014.5mb 83f
9:40  -   -   -  22 27 mph 1014.4mb 83f
9:30  -   -   -  22 27 mph 1014.4mb 83f
9:20  -   -   -  22 27 mph 1014.5mb 83f
9:10  -   -   -  22 27 mph 1014.5mb 83f
9:00  -   -   -  22 27 mph 1014.5mb 83f
8:50 6ft 7s 5s 22 27 mph 1014.5mb 83f
8:40  -   -   -  20 27 mph 1014.5mb 83f
8:30  -   -   -  20 25 mph 1014.5mb 83f
8:20  -   -   -  20 27 mph 1014.3mb 83f
8:10  -   -   -  22 27 mph 1014.1mb 83f
8:00  -   -   -  22 27 mph 1014mb 83f
7:50 6ft 8s 5s 22 27 mph 1013.9mb 83f
7:40  -   -   -  20 27 mph 1013.9mb 83f
7:30  -   -   -  22 27 mph 1013.6mb 82f
7:20  -   -   -  20 27 mph 1013.6mb 83f
7:10  -   -   -  22 29 mph 1013.4mb 83f
7:00  -   -   -  20 25 mph 1013.4mb 83f
6:50 6ft 7s 5s 20 25 mph 1013.1mb 83f
6:40 6ft  -  5s 18 22 mph 1013.1mb 83f
6:30  -   -   -  20 25 mph 1013mb 83f
6:20  -   -   -  20 25 mph 1012.9mb 83f
6:10  -   -   -  20 25 mph 1012.6mb 83f
6:00  -   -   -  20 25 mph 1012.5mb 83f
5:50 6ft 7s 5s 20 25 mph 1012.5mb 83f
5:40 6ft  -  5s 20 25 mph 1012.3mb 83f
5:30  -   -   -  18 22 mph 1012.1mb 83f
5:20  -   -   -  20 25 mph 1012.1mb 83f
5:10  -   -   -  20 25 mph 1012mb 83f
5:00  -   -   -  20 25 mph 1012mb -
4:50 6.5ft 6s 5s 20 25 mph 1011.9mb 83f
4:40  -   -   -  20 27 mph 1011.8mb 83f
4:30  -   -   -  20 25 mph 1011.6mb 83f
4:20  -   -   -  20 27 mph 1011.5mb 83f
4:10  -   -   -  22 29 mph 1011.4mb 83f
4:00  -   -   -  22 27 mph 1011.4mb 83f
3:50 6ft 7s 5s 20 25 mph 1011.4mb 83f
3:40 6ft  -  5s 20 25 mph 1011.4mb 83f
3:30  -   -   -  20 27 mph 1011.4mb -
3:20  -   -   -  20 25 mph 1011.4mb 83f
3:10  -   -   -  20 25 mph 1011.3mb 83f
3:00  -   -   -  20 25 mph 1011.4mb -
2:50 6ft 7s 5s 20 27 mph 1011.3mb 83f
2:40 6ft  -  5s 20 27 mph 1011.3mb 83f
2:30  -   -   -  22 29 mph 1011.4mb 83f
2:20  -   -   -  22 27 mph 1011.5mb 83f
2:10  -   -   -  22 25 mph 1011.6mb -
2:00  -   -   -  22 27 mph 1011.8mb 83f
1:50 6ft 7s 5s 22 29 mph 1011.8mb 83f
1:40  -   -   -  22 27 mph 1011.8mb 83f
1:30  -   -   -  22 27 mph 1011.9mb 83f
1:20  -   -   -  22 29 mph 1012mb 83f
1:10  -   -   -  20 25 mph 1012mb 83f
1:00  -   -   -  22 27 mph 1012mb 83f
12:50 6ft 7s 5s 22 27 mph 1012.1mb 83f
12:40 6ft  -  5s 20 25 mph 1012.3mb 83f
12:30  -   -   -  20 27 mph 1012.5mb 83f
12:20  -   -   -  20 25 mph 1012.5mb 83f
12:10  -   -   -  22 27 mph 1012.8mb 83f
12:00  -   -   -  22 27 mph 1012.6mb 83f
lun. 05/22 11:50 5.5ft 6s 5s 20 25 mph 1012.8mb 83f
11:40  -   -   -  20 25 mph 1012.9mb 83f
11:30  -   -   -  20 25 mph 1013mb 83f
11:20  -   -   -  20 25 mph 1013.4mb 83f
11:10  -   -   -  20 25 mph 1013.4mb 83f
11:00  -   -   -  20 25 mph 1013.5mb 83f
10:50 5.5ft 7s 5s 20 25 mph 1013.6mb 83f
10:40  -   -   -  20 25 mph 1013.6mb 83f
10:30  -   -   -  20 25 mph 1013.8mb 83f
10:20  -   -   -  20 25 mph 1013.9mb 83f
10:10  -   -   -  20 25 mph 1013.9mb 83f
10:00  -   -   -  20 27 mph 1013.6mb 83f
9:50 5.5ft 7s 5s 22 27 mph 1013.5mb 83f
9:40 5.5ft  -  5s 20 27 mph 1013.6mb 83f
9:30  -   -   -  20 25 mph 1013.6mb 83f
9:20  -   -   -  20 25 mph 1013.5mb 83f
9:10  -   -   -  20 25 mph 1013.5mb 83f
9:00  -   -   -  20 27 mph 1013.4mb 83f
8:50 6ft 7s 5s 20 25 mph 1013.3mb 83f
8:40  -   -   -  22 27 mph 1013mb 83f
8:30  -   -   -  20 27 mph 1012.9mb 83f
8:20  -   -   -  20 25 mph 1012.8mb 83f
8:10  -   -   -  20 27 mph 1012.8mb -
8:00  -   -   -  20 25 mph 1012.8mb 83f
7:50 5.5ft 7s 5s 20 25 mph 1012.5mb 83f
7:40  -   -   -  20 25 mph 1012.5mb 83f
7:30  -   -   -  20 25 mph 1012.3mb 83f
7:20  -   -   -  20 25 mph 1012mb 83f
7:10  -   -   -  22 27 mph 1012mb 83f
7:00  -   -   -  22 27 mph 1012mb 83f
6:50 5.5ft 6s 5s 20 25 mph 1012mb 83f
6:40 5.5ft  -  5s 20 25 mph 1012.1mb 83f
6:30  -   -   -  20 25 mph 1012mb 83f
6:20  -   -   -  20 25 mph 1011.9mb 83f
6:10  -   -   -  20 25 mph 1012mb 83f
6:00  -   -   -  20 25 mph 1011.9mb 83f
5:50 6ft 6s 5s 20 25 mph 1012mb 83f
5:40 6ft  -  5s 18 22 mph 1012mb 83f
5:30  -   -   -  20 25 mph 1011.8mb 83f
5:20  -   -   -  18 22 mph 1011.6mb 83f
5:10  -   -   -  18 22 mph 1011.8mb 83f
5:00  -   -   -  18 22 mph 1011.8mb 83f
4:50 5.5ft 7s 5s 18 25 mph 1011.5mb 83f
4:40  -   -   -  18 22 mph 1011.6mb 83f
4:30  -   -   -  18 25 mph 1011.8mb 83f
4:20  -   -   -  18 22 mph 1011.8mb 83f
4:10  -   -   -  18 22 mph 1011.8mb 83f
4:00  -   -   -  18 22 mph 1011.5mb 83f
3:50 5.5ft 8s 5s 20 25 mph 1011.5mb 83f
3:40  -   -   -  20 25 mph 1011.5mb 83f
3:30  -   -   -  20 25 mph 1011.5mb 83f
3:20  -   -   -  20 25 mph 1011.5mb 83f
3:10  -   -   -  20 25 mph 1011.5mb 83f
3:00  -   -   -  20 22 mph 1011.5mb 83f
2:50 5.5ft 7s 5s 16 22 mph 1011.8mb 83f
2:40  -   -   -  18 22 mph 1011.9mb 83f
2:30  -   -   -  20 22 mph 1011.9mb 83f
2:20  -   -   -  20 25 mph 1012mb 83f
2:10  -   -   -  18 22 mph 1012.3mb -
2:00  -   -   -  20 25 mph 1012.4mb 83f
1:50 5.5ft 8s 5s 20 22 mph 1012.5mb 83f
1:40  -   -   -  18 22 mph 1012.9mb 83f
1:30  -   -   -  16 20 mph 1013mb 83f
1:20  -   -   -  18 22 mph 1013mb 83f
1:10  -   -   -  18 22 mph 1013.3mb 83f
1:00  -   -   -  18 22 mph 1013.3mb 83f
12:50 5.5ft 6s 5s 18 22 mph 1013.4mb 83f
12:40  -   -   -  20 25 mph 1013.5mb 83f
12:30  -   -   -  20 25 mph 1013.6mb 83f
12:20  -   -   -  20 25 mph 1013.8mb 83f
12:10  -   -   -  20 25 mph 1013.9mb 83f
12:00  -   -   -  20 22 mph 1013.9mb 83f
11:50 6ft 7s 5s 18 25 mph 1013.9mb 83f
11:40  -   -   -  20 25 mph 1014mb 83f
11:30  -   -   -  18 22 mph 1014mb 83f
11:20  -   -   -  18 22 mph 1014mb 83f
11:10  -   -   -  18 22 mph 1014mb 83f
11:00  -   -   -  18 25 mph 1014mb 83f
10:50 6ft 7s 5s 18 22 mph 1014mb 83f
10:40  -   -   -  18 22 mph 1014mb 83f
10:30  -   -   -  18 22 mph 1014.1mb 83f
10:20  -   -   -  20 25 mph 1014.1mb 83f
10:10  -   -   -  20 25 mph 1014.1mb 83f
10:00  -   -   -  18 22 mph 1014.1mb 83f
9:50 6ft 7s 5s 20 25 mph 1014mb 83f
9:40  -   -   -  20 25 mph 1014mb 83f
9:30  -   -   -  22 25 mph 1014.1mb 83f
9:20  -   -   -  20 27 mph 1014.3mb 83f
9:10  -   -   -  20 25 mph 1014.1mb 83f
9:00  -   -   -  20 25 mph 1014.1mb 83f
8:50 5.5ft 5s 5s 20 25 mph 1014.1mb 83f
8:40  -   -   -  20 25 mph 1014.1mb 83f
8:30  -   -   -  20 25 mph 1014.1mb 83f
8:20  -   -   -  20 22 mph 1013.9mb 83f
8:10  -   -   -  20 27 mph 1014mb 83f
8:00  -   -   -  20 25 mph 1013.8mb 83f
7:50 6ft 8s 5s 20 25 mph 1013.8mb 83f
7:40 6ft  -  5s 20 25 mph 1013.6mb 83f
7:30  -   -   -  18 22 mph 1013.6mb 83f
7:20  -   -   -  20 25 mph 1013.5mb 83f
7:10  -   -   -  20 25 mph 1013.5mb 83f
7:00  -   -   -  20 25 mph 1013.5mb 83f
6:50 6ft 6s 5s 20 27 mph 1013.4mb 83f
6:40  -   -   -  18 25 mph 1013.3mb 83f
6:30  -   -   -  20 25 mph 1013.1mb 83f
6:20  -   -   -  20 25 mph 1013.1mb 83f
6:10  -   -   -  20 25 mph 1013mb 83f
6:00  -   -   -  18 20 mph 1012.9mb 83f
5:50 5.5ft 7s 5s 18 22 mph 1012.9mb 83f
5:40  -   -   -  20 22 mph 1013mb 83f
5:30  -   -   -  20 25 mph 1012.9mb 83f
5:20  -   -   -  18 25 mph 1012.9mb 83f
5:10  -   -   -  18 22 mph 1012.5mb 83f
5:00  -   -   -  20 25 mph 1012.5mb 83f
4:50 6ft 7s 5s 20 25 mph 1012.5mb 83f
4:10  -   -   -  20 22 mph 1012mb 83f
4:00  -   -   -  18 22 mph 1012mb 83f
3:50 6ft 6s 5s 20 25 mph 1012mb 83f
3:40  -   -   -  20 25 mph 1012mb 83f
3:30  -   -   -  20 25 mph 1012mb 83f
3:20  -   -   -  20 25 mph 1012mb 83f
3:10  -   -   -  20 25 mph 1012mb 83f
3:00  -   -   -  20 25 mph 1012mb 83f
2:50 6ft 7s 5s 20 25 mph 1012mb 83f
2:40  -   -   -  20 25 mph 1012mb 83f
2:30  -   -   -  18 25 mph 1012mb 83f
2:20  -   -   -  20 25 mph 1012mb 83f
2:10  -   -   -  20 25 mph 1012.1mb 83f
2:00  -   -   -  20 25 mph 1012.1mb 83f
1:50 6ft 8s 5s 20 27 mph 1012.1mb 83f
1:40  -   -   -  20 27 mph 1012.3mb 83f
1:30  -   -   -  22 27 mph 1012.3mb 83f
1:20  -   -   -  20 27 mph 1012.5mb 83f
1:10  -   -   -  20 25 mph 1012.5mb 83f
1:00  -   -   -  20 22 mph 1012.5mb 83f
12:50 6ft 7s 5s 20 25 mph 1012.5mb 83f
12:40  -   -   -  22 27 mph 1012.6mb 83f
12:30  -   -   -  22 27 mph 1012.8mb 83f
12:20  -   -   -  22 27 mph 1013mb 83f
12:10  -   -   -  20 27 mph 1013mb 83f
12:00  -   -   -  20 27 mph 1013.1mb 83f
dim. 05/21 11:50 6ft 8s 5s 22 27 mph 1013mb 83f
11:40  -   -   -  20 27 mph 1013.1mb 83f
11:30  -   -   -  22 27 mph 1013.3mb 83f
11:20  -   -   -  22 27 mph 1013.3mb 83f
11:10  -   -   -  22 27 mph 1013.4mb 83f
11:00  -   -   -  20 25 mph 1013.5mb 83f
10:50 5.5ft 8s 5s 22 27 mph 1013.5mb 83f
10:40  -   -   -  22 27 mph 1013.4mb 83f
10:30  -   -   -  20 27 mph 1013.5mb 83f
10:20  -   -   -  20 25 mph 1013.5mb 83f
10:10  -   -   -  18 25 mph 1013.5mb 83f
10:00  -   -   -  18 22 mph 1013.6mb 83f
9:50 6ft 8s 5s 18 22 mph 1013.5mb 83f
9:40  -   -   -  20 22 mph 1013.5mb 83f
9:30  -   -   -  18 22 mph 1013.6mb 83f
9:20  -   -   -  18 22 mph 1013.6mb 83f
9:10  -   -   -  18 22 mph 1013.6mb 83f
9:00  -   -   -  18 22 mph 1013.5mb 83f
8:50 6ft 7s 5s 18 22 mph 1013.4mb 83f
8:40  -   -   -  18 22 mph 1013.3mb 83f
8:30  -   -   -  18 25 mph 1013.1mb 83f
8:20  -   -   -  20 22 mph 1013mb 83f
8:10  -   -   -  20 25 mph 1013mb 83f
8:00  -   -   -  20 25 mph 1012.9mb 83f
7:50 6ft 7s 5s 20 25 mph 1012.8mb 83f
7:40 6ft  -  5s 18 22 mph 1012.6mb 83f
7:30  -   -   -  18 25 mph 1012.6mb 83f
7:20  -   -   -  20 25 mph 1012.5mb 83f
7:10  -   -   -  20 25 mph 1012.5mb 83f
7:00  -   -   -  18 22 mph 1012.5mb 83f
6:50 6ft 8s 5s 16 20 mph 1012.5mb 83f
6:40  -   -   -  18 22 mph 1012.4mb 83f
6:30  -   -   -  20 22 mph 1012.3mb 83f
6:20  -   -   -  20 25 mph 1012mb 83f
6:10  -   -   -  18 25 mph 1012mb 83f
6:00  -   -   -  20 25 mph 1012mb 83f
5:50 6.5ft 8s 5s 18 22 mph 1012mb 83f
5:40  -   -   -  20 25 mph 1011.9mb 83f
5:30  -   -   -  20 25 mph 1011.8mb 83f
5:20  -   -   -  20 25 mph 1011.8mb 83f
5:10  -   -   -  20 25 mph 1011.8mb 83f
5:00  -   -   -  20 25 mph 1011.8mb 83f
4:50 6.5ft 8s 6s 18 22 mph 1011.6mb 83f
4:40  -   -   -  20 22 mph 1011.6mb 83f
4:30  -   -   -  18 22 mph 1011.6mb 83f
4:20  -   -   -  18 20 mph 1011.6mb 83f
4:10  -   -   -  20 22 mph 1011.6mb 83f
4:00  -   -   -  18 25 mph 1011.6mb 83f
3:50 7ft 8s 5s 20 22 mph 1011.6mb 83f
3:40  -   -   -  20 25 mph 1011.8mb 83f
3:30  -   -   -  20 25 mph 1011.8mb 83f
3:20  -   -   -  20 22 mph 1012mb 83f
3:10  -   -   -  18 25 mph 1012mb 83f
3:00  -   -   -  18 25 mph 1012mb 83f
2:50 7ft 8s 6s 18 22 mph 1012mb 83f
2:40  -   -   -  20 25 mph 1012mb 83f
2:30  -   -   -  20 22 mph 1012.3mb 83f
2:20  -   -   -  20 25 mph 1012.3mb 83f
2:10  -   -   -  20 22 mph 1012.3mb 83f
2:00  -   -   -  20 22 mph 1012.5mb 83f
1:50 7ft 7s 5s 20 25 mph 1012.5mb 83f
1:40 7ft  -  5s 20 25 mph 1012.5mb 83f
1:30  -   -   -  20 25 mph 1012.5mb 83f
1:20  -   -   -  22 27 mph 1012.8mb 83f
1:10  -   -   -  20 27 mph 1012.9mb 83f
1:00  -   -   -  22 27 mph 1013mb 83f
12:50 7ft 8s 6s 22 27 mph 1013mb 83f
12:40 7ft  -  6s 20 27 mph 1013.3mb 83f
12:30  -   -   -  20 27 mph 1013.4mb 83f
12:20  -   -   -  20 25 mph 1013.4mb 83f
12:10  -   -   -  20 25 mph 1013.5mb 83f
12:00  -   -   -  20 25 mph 1013.9mb 83f
11:50 7.5ft 8s 6s 20 25 mph 1013.8mb 83f
11:40  -   -   -  20 27 mph 1013.8mb -
11:30  -   -   -  22 27 mph 1014mb 83f
11:20  -   -   -  22 27 mph 1014mb 83f
11:10  -   -   -  22 27 mph 1014mb 83f
11:00  -   -   -  22 27 mph 1014mb 83f
10:50 8ft 8s 6s 22 27 mph 1014mb 83f
10:40  -   -   -  22 27 mph 1014mb 83f
10:30  -   -   -  22 27 mph 1014mb 83f
10:20  -   -   -  20 25 mph 1014mb -
10:10  -   -   -  22 27 mph 1014mb 83f
10:00  -   -   -  20 25 mph 1014mb 83f
9:50 8ft 8s 6s 22 27 mph 1014mb 83f
9:40 8ft  -  6s 22 27 mph 1014mb 83f
9:30  -   -   -  22 27 mph 1014.1mb 83f
9:20  -   -   -  22 31 mph 1014mb 83f
9:10  -   -   -  22 31 mph 1014mb 83f
9:00  -   -   -  22 31 mph 1014mb 83f
8:50 7ft 8s 5s 22 27 mph 1014mb 83f
8:40  -   -   -  22 27 mph 1013.9mb 83f